createdAt,value
2019-01-16T00:02:31.241Z,18.87
2019-01-16T00:06:07.570Z,5.80
2019-01-16T00:09:46.984Z,5.37
2019-01-16T00:13:14.033Z,6.07
2019-01-16T00:16:32.152Z,4.43
2019-01-16T00:19:47.454Z,5.20
2019-01-16T00:23:10.524Z,7.40
2019-01-16T00:26:33.159Z,6.00
2019-01-16T00:29:57.805Z,5.63
2019-01-16T00:33:22.503Z,4.80
2019-01-16T00:36:45.568Z,6.50
2019-01-16T00:40:27.759Z,5.87
2019-01-16T00:43:50.697Z,6.90
2019-01-16T00:47:20.811Z,7.77
2019-01-16T00:50:57.315Z,4.80
2019-01-16T00:54:20.128Z,4.80
2019-01-16T00:57:52.138Z,5.33
2019-01-16T01:01:04.156Z,7.57
2019-01-16T01:04:40.583Z,8.57
2019-01-16T01:08:03.905Z,6.07
2019-01-16T01:11:30.948Z,3.20
2019-01-16T01:14:52.366Z,5.10
2019-01-16T01:18:16.496Z,5.30
2019-01-16T01:21:39.477Z,5.80
2019-01-16T01:25:02.294Z,5.07
2019-01-16T01:28:25.603Z,3.77
2019-01-16T01:31:58.692Z,5.63
2019-01-16T01:35:21.662Z,7.03
2019-01-16T01:38:45.925Z,6.67
2019-01-16T01:42:08.709Z,7.57
2019-01-16T01:45:42.576Z,4.77
2019-01-16T01:48:58.176Z,4.93
2019-01-16T01:52:25.635Z,4.27
2019-01-16T01:55:49.853Z,4.33
2019-01-16T01:59:11.482Z,6.63
2019-01-16T02:02:35.618Z,4.40
2019-01-16T02:06:03.960Z,5.73
2019-01-16T02:09:37.449Z,4.87
2019-01-16T02:13:01.239Z,3.03
2019-01-16T02:16:40.531Z,6.70
2019-01-16T02:20:04.603Z,10.20
2019-01-16T02:23:40.874Z,5.20
2019-01-16T02:27:05.897Z,6.07
2019-01-16T02:30:30.666Z,6.27
2019-01-16T02:33:53.407Z,4.97
2019-01-16T02:37:16.261Z,4.13
2019-01-16T02:40:44.092Z,6.83
2019-01-16T02:44:08.273Z,6.47
2019-01-16T02:47:44.880Z,5.10
2019-01-16T02:51:07.905Z,7.63
2019-01-16T02:54:35.024Z,5.17
2019-01-16T02:58:05.071Z,6.40
2019-01-16T03:01:20.028Z,6.90
2019-01-16T03:04:47.380Z,5.70
2019-01-16T03:07:59.142Z,6.40
2019-01-16T03:11:17.497Z,5.37
2019-01-16T03:14:40.544Z,4.60
2019-01-16T03:18:16.791Z,6.43
2019-01-16T03:21:49.944Z,6.63
2019-01-16T03:25:24.559Z,7.03
2019-01-16T03:28:54.463Z,8.67
2019-01-16T03:32:24.719Z,5.90
2019-01-16T03:35:51.601Z,7.87
2019-01-16T03:39:08.274Z,9.57
2019-01-16T03:42:32.380Z,5.60
2019-01-16T03:45:56.610Z,10.17
2019-01-16T03:49:39.256Z,7.87
2019-01-16T03:53:01.774Z,6.57
2019-01-16T03:56:25.850Z,7.87
2019-01-16T03:59:56.075Z,10.13
2019-01-16T04:03:23.394Z,8.67
2019-01-16T04:06:41.058Z,10.00
2019-01-16T04:10:03.477Z,16.13
2019-01-16T04:13:27.630Z,7.10
2019-01-16T04:16:54.972Z,8.97
2019-01-16T04:20:24.939Z,6.80
2019-01-16T04:23:47.684Z,5.07
2019-01-16T04:27:14.679Z,7.23
2019-01-16T04:30:41.577Z,7.37
2019-01-16T04:34:03.602Z,8.27
2019-01-16T04:37:43.054Z,4.73
2019-01-16T04:41:16.457Z,7.80
2019-01-16T04:44:41.104Z,8.53
2019-01-16T04:47:53.600Z,6.67
2019-01-16T04:51:10.096Z,8.70
2019-01-16T04:54:34.251Z,6.93
2019-01-16T04:58:05.967Z,7.63
2019-01-16T05:01:28.637Z,9.73
2019-01-16T05:05:04.729Z,7.27
2019-01-16T05:08:34.155Z,9.53
2019-01-16T05:12:10.650Z,7.47
2019-01-16T05:15:44.029Z,6.27
2019-01-16T05:19:23.432Z,9.33
2019-01-16T05:22:53.501Z,6.43
2019-01-16T05:26:06.526Z,9.93
2019-01-16T05:29:32.864Z,7.30
2019-01-16T05:32:54.186Z,6.17
2019-01-16T05:36:18.291Z,5.70
2019-01-16T05:39:41.286Z,7.97
2019-01-16T05:43:17.840Z,76.47
2019-01-16T05:46:57.978Z,12.83
2019-01-16T05:50:28.478Z,7.43
2019-01-16T05:54:01.492Z,10.30
2019-01-16T05:57:24.761Z,9.37
2019-01-16T06:01:07.123Z,9.50
2019-01-16T06:04:39.796Z,10.80
2019-01-16T06:08:10.340Z,11.73
2019-01-16T06:11:33.165Z,12.17
2019-01-16T06:15:04.521Z,16.87
2019-01-16T06:18:27.804Z,12.77
2019-01-16T06:22:03.284Z,7.30
2019-01-16T06:25:26.112Z,9.40
2019-01-16T06:28:51.030Z,10.33
2019-01-16T06:32:20.470Z,11.60
2019-01-16T06:36:02.854Z,22.17
2019-01-16T06:39:17.473Z,7.63
2019-01-16T06:42:40.822Z,10.70
2019-01-16T06:46:11.208Z,7.57
2019-01-16T06:49:40.320Z,5.60
2019-01-16T06:52:54.752Z,7.13
2019-01-16T06:56:18.919Z,10.63
2019-01-16T06:59:31.112Z,9.40
2019-01-16T07:03:10.442Z,14.13
2019-01-16T07:06:34.663Z,10.77
2019-01-16T07:10:01.612Z,8.67
2019-01-16T07:13:31.967Z,6.23
2019-01-16T07:17:14.461Z,6.70
2019-01-16T07:20:47.524Z,7.43
2019-01-16T07:24:14.715Z,6.40
2019-01-16T07:27:37.859Z,9.93
2019-01-16T07:31:17.365Z,6.97
2019-01-16T07:34:38.190Z,7.57
2019-01-16T07:38:18.263Z,6.73
2019-01-16T07:41:41.278Z,8.37
2019-01-16T07:45:05.419Z,9.17
2019-01-16T07:48:41.955Z,4.87
2019-01-16T07:51:59.699Z,5.77
2019-01-16T07:55:16.539Z,5.93
2019-01-16T07:58:49.733Z,9.53
2019-01-16T08:02:16.696Z,7.70
2019-01-16T08:05:39.594Z,8.47
2019-01-16T08:09:02.551Z,8.67
2019-01-16T08:12:26.074Z,8.47
2019-01-16T08:15:42.762Z,6.30
2019-01-16T08:19:06.947Z,7.57
2019-01-16T08:22:31.245Z,7.30
2019-01-16T08:25:45.447Z,7.67
2019-01-16T08:29:15.543Z,7.00
2019-01-16T08:32:54.854Z,8.77
2019-01-16T08:36:25.218Z,7.70
2019-01-16T08:39:49.473Z,8.60
2019-01-16T08:43:02.899Z,9.57
2019-01-16T08:46:27.238Z,9.30
2019-01-16T08:49:44.938Z,7.03
2019-01-16T08:53:25.445Z,7.03
2019-01-16T08:56:49.678Z,8.20
2019-01-16T09:00:13.884Z,11.03
2019-01-16T09:03:38.548Z,8.60
2019-01-16T09:06:56.404Z,9.53
2019-01-16T09:10:20.535Z,9.57
2019-01-16T09:13:50.759Z,12.63
2019-01-16T09:17:21.081Z,5.63
2019-01-16T09:20:55.265Z,10.27
2019-01-16T09:24:12.132Z,8.87
2019-01-16T09:27:42.075Z,9.50
2019-01-16T09:31:18.680Z,10.40
2019-01-16T09:34:45.008Z,7.77
2019-01-16T09:38:11.906Z,8.50
2019-01-16T09:41:39.227Z,7.63
2019-01-16T09:45:03.694Z,4.00
2019-01-16T09:48:27.308Z,5.47
2019-01-16T09:51:53.532Z,8.20
2019-01-16T09:55:20.564Z,7.63
2019-01-16T09:58:43.292Z,6.07
2019-01-16T10:02:07.257Z,4.07
2019-01-16T10:05:29.004Z,8.47
2019-01-16T10:08:54.657Z,6.23
2019-01-16T10:12:11.827Z,7.07
2019-01-16T10:15:39.913Z,7.00
2019-01-16T10:19:19.589Z,5.23
2019-01-16T10:22:58.877Z,6.30
2019-01-16T10:26:21.919Z,4.53
2019-01-16T10:29:42.235Z,3.57
2019-01-16T10:33:05.248Z,8.63
2019-01-16T10:36:38.830Z,5.60
2019-01-16T10:40:01.696Z,7.67
2019-01-16T10:43:32.121Z,7.03
2019-01-16T10:46:53.054Z,8.10
2019-01-16T10:50:29.423Z,6.63
2019-01-16T10:54:11.807Z,8.77
2019-01-16T10:57:34.526Z,6.73
2019-01-16T11:00:57.506Z,7.37
2019-01-16T11:04:27.852Z,6.20
2019-01-16T11:07:42.528Z,8.40
2019-01-16T11:11:21.847Z,4.10
2019-01-16T11:14:48.857Z,6.63
2019-01-16T11:18:11.851Z,5.73
2019-01-16T11:21:35.026Z,6.30
2019-01-16T11:25:02.201Z,4.17
2019-01-16T11:28:25.340Z,6.20
2019-01-16T11:32:08.002Z,5.90
2019-01-16T11:35:47.333Z,6.83
2019-01-16T11:39:11.683Z,7.20
2019-01-16T11:42:28.592Z,7.43
2019-01-16T11:46:10.725Z,6.73
2019-01-16T11:49:31.294Z,6.33
2019-01-16T11:53:12.215Z,5.27
2019-01-16T11:56:35.548Z,7.10
2019-01-16T11:59:50.177Z,6.93
2019-01-16T12:03:20.658Z,6.93
2019-01-16T12:06:47.664Z,7.10
2019-01-16T12:10:02.709Z,6.20
2019-01-16T12:13:25.790Z,6.90
2019-01-16T12:16:44.851Z,5.67
2019-01-16T12:20:12.036Z,6.13
2019-01-16T12:23:35.155Z,6.43
2019-01-16T12:27:02.467Z,7.33
2019-01-16T12:30:43.075Z,5.97
2019-01-16T12:33:58.686Z,6.97
2019-01-16T12:37:15.408Z,8.97
2019-01-16T12:40:45.652Z,5.10
2019-01-16T12:44:06.038Z,8.83
2019-01-16T12:47:29.106Z,9.07
2019-01-16T12:50:52.353Z,5.17
2019-01-16T12:54:22.556Z,8.43
2019-01-16T12:57:45.408Z,6.30
2019-01-16T13:01:24.667Z,8.70
2019-01-16T13:04:47.771Z,7.10
2019-01-16T13:08:14.977Z,4.63
2019-01-16T13:11:40.347Z,6.83
2019-01-16T13:14:59.178Z,7.20
2019-01-16T13:18:16.834Z,5.53
2019-01-16T13:21:46.912Z,7.77
2019-01-16T13:25:11.078Z,7.13
2019-01-16T13:28:35.063Z,6.77
2019-01-16T13:32:05.166Z,7.70
2019-01-16T13:35:35.297Z,5.83
2019-01-16T13:38:48.406Z,7.20
2019-01-16T13:42:18.585Z,7.33
2019-01-16T13:45:50.322Z,6.50
2019-01-16T13:49:27.000Z,8.27
2019-01-16T13:52:49.751Z,6.60
2019-01-16T13:56:13.858Z,7.37
2019-01-16T13:59:41.085Z,5.27
2019-01-16T14:03:11.540Z,5.33
2019-01-16T14:06:34.550Z,5.23
2019-01-16T14:09:57.274Z,5.97
2019-01-16T14:13:36.787Z,6.87
2019-01-16T14:17:10.382Z,5.83
2019-01-16T14:20:44.699Z,6.40
2019-01-16T14:24:18.635Z,9.67
2019-01-16T14:27:52.136Z,6.43
2019-01-16T14:31:11.016Z,7.27
2019-01-16T14:34:44.510Z,7.10
2019-01-16T14:38:07.744Z,4.63
2019-01-16T14:41:35.043Z,17.70
2019-01-16T14:45:02.392Z,14.60
2019-01-16T14:48:19.308Z,9.97
2019-01-16T14:51:42.197Z,14.60
2019-01-16T14:55:15.735Z,8.90
2019-01-16T14:58:48.893Z,8.37
2019-01-16T15:02:12.075Z,9.40
2019-01-16T15:05:43.174Z,8.10
2019-01-16T15:09:07.328Z,8.97
2019-01-16T15:12:41.484Z,6.00
2019-01-16T15:16:04.530Z,5.30
2019-01-16T15:19:27.381Z,7.43
2019-01-16T15:22:54.281Z,4.17
2019-01-16T15:26:21.511Z,5.83
2019-01-16T15:30:04.236Z,5.70
2019-01-16T15:33:43.675Z,5.10
2019-01-16T15:37:08.655Z,4.33
2019-01-16T15:40:33.384Z,4.90
2019-01-16T15:43:56.370Z,8.17
2019-01-16T15:47:21.638Z,8.03
2019-01-16T15:50:48.068Z,7.37
2019-01-16T15:54:04.983Z,6.03
2019-01-16T15:57:28.991Z,17.43
2019-01-16T16:00:42.158Z,14.40
2019-01-16T16:04:04.570Z,17.87
2019-01-16T16:07:37.235Z,16.30
2019-01-16T16:11:10.519Z,16.33
2019-01-16T16:14:35.659Z,14.70
2019-01-16T16:17:58.651Z,13.07
2019-01-16T16:21:21.470Z,9.63
2019-01-16T16:24:48.648Z,9.77
2019-01-16T16:28:11.673Z,10.10
2019-01-16T16:31:54.236Z,10.60
2019-01-16T16:35:31.007Z,11.30
2019-01-16T16:38:55.214Z,6.80
2019-01-16T16:42:31.820Z,10.70
2019-01-16T16:45:54.488Z,15.23
2019-01-16T16:49:06.398Z,10.13
2019-01-16T16:52:29.227Z,13.87
2019-01-16T16:55:47.934Z,20.47
2019-01-16T16:59:07.735Z,22.37
2019-01-16T17:02:31.969Z,19.17
2019-01-16T17:05:55.100Z,30.97
2019-01-16T17:09:25.121Z,30.13
2019-01-16T17:12:58.352Z,17.87
2019-01-16T17:16:41.028Z,17.60
2019-01-16T17:20:05.015Z,12.47
2019-01-16T17:23:38.458Z,13.93
2019-01-16T17:26:52.220Z,12.47
2019-01-16T17:30:05.970Z,9.30
2019-01-16T17:33:33.172Z,13.57
2019-01-16T17:37:03.433Z,15.77
2019-01-16T17:40:30.874Z,14.87
2019-01-16T17:43:53.721Z,14.30
2019-01-16T17:47:16.549Z,15.37
2019-01-16T17:50:49.868Z,20.10
2019-01-16T17:54:17.942Z,28.47
2019-01-16T17:57:52.038Z,29.37
2019-01-16T18:01:04.187Z,20.67
2019-01-16T18:04:26.012Z,20.70
2019-01-16T18:07:45.757Z,21.37
2019-01-16T18:11:09.860Z,19.77
2019-01-16T18:14:43.237Z,23.57
2019-01-16T18:18:06.052Z,26.40
2019-01-16T18:21:22.366Z,25.33
2019-01-16T18:24:52.444Z,32.50
2019-01-16T18:28:11.879Z,27.67
2019-01-16T18:31:41.738Z,23.87
2019-01-16T18:35:02.750Z,21.33
2019-01-16T18:38:29.604Z,17.77
2019-01-16T18:42:06.337Z,15.20
2019-01-16T18:45:42.559Z,27.80
2019-01-16T18:49:06.680Z,16.67
2019-01-16T18:52:29.336Z,21.03
2019-01-16T18:55:50.530Z,19.07
2019-01-16T18:59:13.329Z,18.77
2019-01-16T19:02:37.463Z,20.23
2019-01-16T19:06:02.781Z,29.77
2019-01-16T19:09:28.402Z,23.10
2019-01-16T19:12:52.568Z,27.97
2019-01-16T19:16:20.522Z,28.90
2019-01-16T19:19:43.650Z,28.87
2019-01-16T19:23:06.420Z,31.03
2019-01-16T19:26:30.618Z,36.67
2019-01-16T19:29:53.301Z,35.77
2019-01-16T19:33:17.468Z,27.43
2019-01-16T19:36:40.574Z,22.70
2019-01-16T19:40:04.706Z,22.33
2019-01-16T19:43:37.976Z,25.13
2019-01-16T19:46:56.534Z,23.73
2019-01-16T19:50:34.106Z,30.23
2019-01-16T19:54:16.484Z,30.77
2019-01-16T19:57:31.429Z,24.27
2019-01-16T20:01:04.466Z,23.10
2019-01-16T20:04:26.793Z,32.13
2019-01-16T20:07:53.814Z,27.17
2019-01-16T20:11:24.133Z,22.47
2019-01-16T20:14:37.999Z,28.17
2019-01-16T20:18:04.003Z,38.60
2019-01-16T20:21:26.994Z,53.33
2019-01-16T20:24:49.726Z,49.80
2019-01-16T20:28:12.718Z,37.50
2019-01-16T20:31:28.473Z,40.37
2019-01-16T20:34:50.059Z,47.40
2019-01-16T20:38:32.486Z,44.23
2019-01-16T20:41:55.596Z,47.13
2019-01-16T20:45:17.399Z,42.83
2019-01-16T20:48:46.652Z,47.70
2019-01-16T20:52:20.011Z,42.60
2019-01-16T20:55:37.543Z,30.93
2019-01-16T20:59:06.341Z,36.53
2019-01-16T21:02:45.884Z,32.00
2019-01-16T21:06:13.043Z,30.40
2019-01-16T21:09:37.223Z,25.97
2019-01-16T21:13:01.273Z,38.53
2019-01-16T21:16:34.392Z,38.40
2019-01-16T21:19:57.494Z,45.03
2019-01-16T21:23:15.372Z,45.40
2019-01-16T21:26:42.473Z,40.33
2019-01-16T21:30:09.731Z,44.37
2019-01-16T21:33:45.734Z,37.30
2019-01-16T21:37:09.061Z,42.50
2019-01-16T21:40:32.433Z,38.13
2019-01-16T21:44:14.784Z,33.87
2019-01-16T21:47:36.566Z,36.60
2019-01-16T21:51:07.074Z,39.40
2019-01-16T21:54:29.806Z,30.43
2019-01-16T21:57:49.054Z,34.53
2019-01-16T22:01:07.598Z,30.33
2019-01-16T22:04:30.569Z,31.80
2019-01-16T22:08:13.306Z,30.73
2019-01-16T22:11:35.630Z,33.47
2019-01-16T22:15:18.019Z,33.60
2019-01-16T22:18:45.183Z,31.20
2019-01-16T22:22:15.154Z,29.00
2019-01-16T22:25:39.224Z,35.70
2019-01-16T22:29:12.300Z,28.57
2019-01-16T22:32:32.039Z,25.83
2019-01-16T22:36:02.716Z,20.57
2019-01-16T22:39:36.481Z,19.73
2019-01-16T22:42:52.422Z,19.27
2019-01-16T22:46:16.504Z,17.80
2019-01-16T22:49:49.476Z,11.90
2019-01-16T22:53:15.209Z,10.83
2019-01-16T22:56:51.273Z,10.67
2019-01-16T23:00:14.631Z,11.83
2019-01-16T23:03:49.529Z,9.90
2019-01-16T23:07:08.980Z,12.73
2019-01-16T23:10:36.003Z,10.90
2019-01-16T23:14:00.043Z,8.37
2019-01-16T23:17:24.238Z,9.37
2019-01-16T23:21:00.457Z,10.70
2019-01-16T23:24:17.122Z,8.37
2019-01-16T23:27:55.879Z,9.57
2019-01-16T23:31:09.107Z,7.67
2019-01-16T23:34:45.494Z,9.67
2019-01-16T23:38:27.706Z,9.60
2019-01-16T23:41:58.068Z,9.13
2019-01-16T23:45:34.301Z,8.47
2019-01-16T23:49:10.388Z,7.37
2019-01-16T23:52:40.764Z,8.30
2019-01-16T23:56:07.900Z,9.03
2019-01-16T23:59:50.156Z,11.30
